createdAt,value
2023-01-12T00:01:45.662Z,189.23
2023-01-12T00:04:14.504Z,180.53
2023-01-12T00:06:42.678Z,181.30
2023-01-12T00:09:11.192Z,197.03
2023-01-12T00:11:40.077Z,198.70
2023-01-12T00:14:09.455Z,193.40
2023-01-12T00:16:41.439Z,191.07
2023-01-12T00:19:13.055Z,190.43
2023-01-12T00:21:52.461Z,193.10
2023-01-12T00:24:20.749Z,185.07
2023-01-12T00:26:49.484Z,197.77
2023-01-12T00:29:17.602Z,193.00
2023-01-12T00:31:45.795Z,191.90
2023-01-12T00:34:16.118Z,191.93
2023-01-12T00:36:44.165Z,203.07
2023-01-12T00:39:11.890Z,192.07
2023-01-12T00:41:57.615Z,194.60
2023-01-12T00:44:43.109Z,183.73
2023-01-12T00:47:11.876Z,176.03
2023-01-12T00:49:42.066Z,185.73
2023-01-12T00:52:18.272Z,179.03
2023-01-12T00:54:53.025Z,173.87
2023-01-12T00:57:20.654Z,184.83
2023-01-12T00:59:48.311Z,183.03
2023-01-12T01:02:16.071Z,189.60
2023-01-12T01:04:45.138Z,201.17
2023-01-12T01:07:16.007Z,181.33
2023-01-12T01:09:44.406Z,193.43
2023-01-12T01:12:12.133Z,181.83
2023-01-12T01:14:39.860Z,168.27
2023-01-12T01:17:07.612Z,174.53
2023-01-12T01:19:35.308Z,175.57
2023-01-12T01:22:04.690Z,179.93
2023-01-12T01:24:32.642Z,193.57
2023-01-12T01:27:00.299Z,187.90
2023-01-12T01:29:27.996Z,185.23
2023-01-12T01:31:56.298Z,191.00
2023-01-12T01:34:24.664Z,184.57
2023-01-12T01:36:52.354Z,193.90
2023-01-12T01:39:21.349Z,181.50
2023-01-12T01:41:49.072Z,182.73
2023-01-12T01:44:53.707Z,196.20
2023-01-12T01:47:33.453Z,179.80
2023-01-12T01:50:04.008Z,186.43
2023-01-12T01:52:35.637Z,213.80
2023-01-12T01:55:09.494Z,186.97
2023-01-12T01:57:44.001Z,196.03
2023-01-12T02:00:13.768Z,185.23
2023-01-12T02:02:43.652Z,188.33
2023-01-12T02:05:12.708Z,209.47
2023-01-12T02:07:41.925Z,207.67
2023-01-12T02:10:12.248Z,201.80
2023-01-12T02:12:58.333Z,194.83
2023-01-12T02:15:48.048Z,188.57
2023-01-12T02:18:22.635Z,185.80
2023-01-12T02:21:03.716Z,192.77
2023-01-12T02:24:00.662Z,204.50
2023-01-12T02:26:54.354Z,203.77
2023-01-12T02:29:46.590Z,197.33
2023-01-12T02:32:26.148Z,184.37
2023-01-12T02:35:05.551Z,197.63
2023-01-12T02:37:43.050Z,193.90
2023-01-12T02:40:16.666Z,196.53
2023-01-12T02:42:54.485Z,188.80
2023-01-12T02:45:34.889Z,177.90
2023-01-12T02:48:10.323Z,195.70
2023-01-12T02:50:44.824Z,207.07
2023-01-12T02:53:18.086Z,195.60
2023-01-12T02:55:47.537Z,188.10
2023-01-12T02:58:18.773Z,201.97
2023-01-12T03:00:50.361Z,192.70
2023-01-12T03:03:20.260Z,188.23
2023-01-12T03:05:48.469Z,199.90
2023-01-12T03:08:18.905Z,204.07
2023-01-12T03:11:01.512Z,195.43
2023-01-12T03:13:32.740Z,194.20
2023-01-12T03:16:02.056Z,196.60
2023-01-12T03:18:34.021Z,197.13
2023-01-12T03:21:06.122Z,208.33
2023-01-12T03:23:42.379Z,203.50
2023-01-12T03:26:12.491Z,204.10
2023-01-12T03:28:44.117Z,201.03
2023-01-12T03:31:13.998Z,201.30
2023-01-12T03:33:44.563Z,197.43
2023-01-12T03:36:20.533Z,185.30
2023-01-12T03:39:01.063Z,211.53
2023-01-12T03:41:38.972Z,199.47
2023-01-12T03:44:15.192Z,179.73
2023-01-12T03:46:48.009Z,195.97
2023-01-12T03:49:24.316Z,208.63
2023-01-12T03:51:54.208Z,197.60
2023-01-12T03:54:23.163Z,204.73
2023-01-12T03:56:51.760Z,213.50
2023-01-12T03:59:19.609Z,207.60
2023-01-12T04:01:48.901Z,214.30
2023-01-12T04:04:18.237Z,193.87
2023-01-12T04:06:45.857Z,187.30
2023-01-12T04:09:13.446Z,199.30
2023-01-12T04:11:58.541Z,204.70
2023-01-12T04:14:26.549Z,172.27
2023-01-12T04:16:54.227Z,188.87
2023-01-12T04:19:23.205Z,190.33
2023-01-12T04:22:08.788Z,207.57
2023-01-12T04:24:36.391Z,196.77
2023-01-12T04:27:04.258Z,191.70
2023-01-12T04:29:31.885Z,196.90
2023-01-12T04:31:59.593Z,201.83
2023-01-12T04:34:28.630Z,201.23
2023-01-12T04:36:56.254Z,208.63
2023-01-12T04:39:24.223Z,201.70
2023-01-12T04:41:52.401Z,205.47
2023-01-12T04:44:20.338Z,190.73
2023-01-12T04:46:50.581Z,184.50
2023-01-12T04:49:18.629Z,196.17
2023-01-12T04:51:47.688Z,212.53
2023-01-12T04:54:15.332Z,189.73
2023-01-12T04:56:43.036Z,206.60
2023-01-12T04:59:10.763Z,213.50
2023-01-12T05:01:39.103Z,210.80
2023-01-12T05:04:08.055Z,222.23
2023-01-12T05:06:35.939Z,194.13
2023-01-12T05:09:22.446Z,196.73
2023-01-12T05:11:50.096Z,212.40
2023-01-12T05:14:17.717Z,199.03
2023-01-12T05:16:45.614Z,207.70
2023-01-12T05:19:13.359Z,211.53
2023-01-12T05:21:41.082Z,192.90
2023-01-12T05:24:10.408Z,200.97
2023-01-12T05:26:38.236Z,206.20
2023-01-12T05:29:05.865Z,197.47
2023-01-12T05:31:35.509Z,203.80
2023-01-12T05:34:03.179Z,212.17
2023-01-12T05:36:31.096Z,195.67
2023-01-12T05:38:59.617Z,185.00
2023-01-12T05:41:28.657Z,202.90
2023-01-12T05:43:55.361Z,200.77
2023-01-12T05:46:25.315Z,185.83
2023-01-12T05:48:54.463Z,194.03
2023-01-12T05:51:22.598Z,212.27
2023-01-12T05:53:51.346Z,196.90
2023-01-12T05:56:21.093Z,191.37
2023-01-12T05:58:54.657Z,206.13
2023-01-12T06:01:23.183Z,197.73
2023-01-12T06:03:51.911Z,201.43
2023-01-12T06:06:20.697Z,218.67
2023-01-12T06:08:50.694Z,197.33
2023-01-12T06:11:36.784Z,194.40
2023-01-12T06:14:06.305Z,204.77
2023-01-12T06:16:34.171Z,192.17
2023-01-12T06:19:02.174Z,205.53
2023-01-12T06:21:29.987Z,201.33
2023-01-12T06:23:57.670Z,216.17
2023-01-12T06:26:25.370Z,191.57
2023-01-12T06:28:53.094Z,215.73
2023-01-12T06:31:22.194Z,206.50
2023-01-12T06:33:49.945Z,196.50
2023-01-12T06:36:17.620Z,199.47
2023-01-12T06:38:45.298Z,198.53
2023-01-12T06:41:34.316Z,208.97
2023-01-12T06:44:01.980Z,181.80
2023-01-12T06:46:31.562Z,200.57
2023-01-12T06:48:59.785Z,202.30
2023-01-12T06:51:27.592Z,195.23
2023-01-12T06:53:55.595Z,210.50
2023-01-12T06:56:23.387Z,196.23
2023-01-12T06:58:51.130Z,211.53
2023-01-12T07:01:18.969Z,218.77
2023-01-12T07:03:48.077Z,187.43
2023-01-12T07:06:16.565Z,189.00
2023-01-12T07:08:44.233Z,196.97
2023-01-12T07:11:12.718Z,198.77
2023-01-12T07:13:40.382Z,205.10
2023-01-12T07:16:08.760Z,191.03
2023-01-12T07:18:36.680Z,194.47
2023-01-12T07:21:10.424Z,196.20
2023-01-12T07:23:38.520Z,197.27
2023-01-12T07:26:06.396Z,196.80
2023-01-12T07:28:35.534Z,192.87
2023-01-12T07:31:04.573Z,207.80
2023-01-12T07:33:34.273Z,220.77
2023-01-12T07:36:02.882Z,197.47
2023-01-12T07:38:32.394Z,193.97
2023-01-12T07:41:00.375Z,206.97
2023-01-12T07:43:28.647Z,201.83
2023-01-12T07:45:57.852Z,200.03
2023-01-12T07:48:26.743Z,196.73
2023-01-12T07:50:54.720Z,194.50
2023-01-12T07:53:22.395Z,190.20
2023-01-12T07:55:51.436Z,198.50
2023-01-12T07:58:19.157Z,215.07
2023-01-12T08:00:46.908Z,188.20
2023-01-12T08:03:15.250Z,190.50
2023-01-12T08:05:43.101Z,188.80
2023-01-12T08:08:10.804Z,212.20
2023-01-12T08:10:38.552Z,199.30
2023-01-12T08:13:07.644Z,181.90
2023-01-12T08:15:41.238Z,207.30
2023-01-12T08:18:15.088Z,183.93
2023-01-12T08:20:43.567Z,185.63
2023-01-12T08:23:14.381Z,195.23
2023-01-12T08:25:46.149Z,195.67
2023-01-12T08:28:19.981Z,202.07
2023-01-12T08:30:49.668Z,190.40
2023-01-12T08:33:17.753Z,188.73
2023-01-12T08:35:47.200Z,196.50
2023-01-12T08:38:15.101Z,203.10
2023-01-12T08:41:00.291Z,197.53
2023-01-12T08:43:46.768Z,193.57
2023-01-12T08:46:14.601Z,191.57
2023-01-12T08:48:42.371Z,201.40
2023-01-12T08:51:10.381Z,203.00
2023-01-12T08:53:38.009Z,209.53
2023-01-12T08:56:06.379Z,214.27
2023-01-12T08:58:35.499Z,200.63
2023-01-12T09:01:10.659Z,199.57
2023-01-12T09:03:39.211Z,211.27
2023-01-12T09:06:11.378Z,198.57
2023-01-12T09:08:39.015Z,203.93
2023-01-12T09:11:07.405Z,205.50
2023-01-12T09:13:37.020Z,188.43
2023-01-12T09:16:12.752Z,197.53
2023-01-12T09:18:41.671Z,216.60
2023-01-12T09:21:11.360Z,208.87
2023-01-12T09:23:39.860Z,205.60
2023-01-12T09:26:08.916Z,211.20
2023-01-12T09:28:38.578Z,191.60
2023-01-12T09:31:08.740Z,210.67
2023-01-12T09:33:38.411Z,219.20
2023-01-12T09:36:08.297Z,199.00
2023-01-12T09:38:37.157Z,199.73
2023-01-12T09:41:13.118Z,208.60
2023-01-12T09:44:05.321Z,221.63
2023-01-12T09:46:56.865Z,190.07
2023-01-12T09:49:29.693Z,213.50
2023-01-12T09:52:01.544Z,205.30
2023-01-12T09:54:29.331Z,205.57
2023-01-12T09:57:09.290Z,208.37
2023-01-12T09:59:49.661Z,207.27
2023-01-12T10:02:17.535Z,215.00
2023-01-12T10:04:46.954Z,209.57
2023-01-12T10:07:17.140Z,224.70
2023-01-12T10:09:45.443Z,210.07
2023-01-12T10:12:21.425Z,212.00
2023-01-12T10:15:24.810Z,214.93
2023-01-12T10:17:57.365Z,201.10
2023-01-12T10:20:31.231Z,217.53
2023-01-12T10:23:09.676Z,208.23
2023-01-12T10:25:41.268Z,205.30
2023-01-12T10:28:14.709Z,205.67
2023-01-12T10:30:44.762Z,208.23
2023-01-12T10:33:15.933Z,220.10
2023-01-12T10:35:58.628Z,220.67
2023-01-12T10:38:29.324Z,209.47
2023-01-12T10:41:13.045Z,231.93
2023-01-12T10:43:42.145Z,203.38
2023-01-12T10:46:14.116Z,231.93
2023-01-12T10:48:44.124Z,204.07
2023-01-12T10:51:27.425Z,222.98
2023-01-12T10:54:01.270Z,228.20
2023-01-12T10:56:35.179Z,216.33
2023-01-12T10:59:05.439Z,229.93
2023-01-12T11:01:50.749Z,210.77
2023-01-12T11:04:21.969Z,215.70
2023-01-12T11:07:05.133Z,216.30
2023-01-12T11:09:33.233Z,203.87
2023-01-12T11:12:03.431Z,220.03
2023-01-12T11:14:35.836Z,218.68
2023-01-12T11:17:29.269Z,229.00
2023-01-12T11:19:58.443Z,225.32
2023-01-12T11:22:28.616Z,223.63
2023-01-12T11:24:59.271Z,230.52
2023-01-12T11:27:32.763Z,232.65
2023-01-12T11:30:04.859Z,224.70
2023-01-12T11:32:40.841Z,225.57
2023-01-12T11:35:23.270Z,220.67
2023-01-12T11:37:54.899Z,220.70
2023-01-12T11:40:30.071Z,215.47
2023-01-12T11:43:24.243Z,230.07
2023-01-12T11:45:57.448Z,215.70
2023-01-12T11:48:38.430Z,234.53
2023-01-12T11:51:06.283Z,215.67
2023-01-12T11:53:34.422Z,242.60
2023-01-12T11:56:18.352Z,231.82
2023-01-12T11:58:56.118Z,233.20
2023-01-12T12:01:31.205Z,216.67
2023-01-12T12:04:22.484Z,219.15
2023-01-12T12:07:06.209Z,242.00
2023-01-12T12:10:01.087Z,219.15
2023-01-12T12:12:39.103Z,223.00
2023-01-12T12:15:19.188Z,242.80
2023-01-12T12:17:55.547Z,241.48
2023-01-12T12:20:33.579Z,225.98
2023-01-12T12:23:14.543Z,226.00
2023-01-12T12:25:53.715Z,224.43
2023-01-12T12:28:39.192Z,228.30
2023-01-12T12:31:48.716Z,220.60
2023-01-12T12:34:38.333Z,213.63
2023-01-12T12:37:17.930Z,237.52
2023-01-12T12:40:04.702Z,229.57
2023-01-12T12:43:06.297Z,236.63
2023-01-12T12:45:44.660Z,226.73
2023-01-12T12:48:16.558Z,232.68
2023-01-12T12:50:51.001Z,242.80
2023-01-12T12:53:26.179Z,211.47
2023-01-12T12:55:56.931Z,229.35
2023-01-12T12:58:39.727Z,215.10
2023-01-12T13:01:44.296Z,211.30
2023-01-12T13:04:14.832Z,218.07
2023-01-12T13:06:49.532Z,228.88
2023-01-12T13:09:43.257Z,225.95
2023-01-12T13:12:20.988Z,215.57
2023-01-12T13:15:18.810Z,229.57
2023-01-12T13:17:48.824Z,226.67
2023-01-12T13:20:50.937Z,220.40
2023-01-12T13:23:56.920Z,206.73
2023-01-12T13:26:44.623Z,211.63
2023-01-12T13:29:40.759Z,198.70
2023-01-12T13:32:36.392Z,218.47
2023-01-12T13:35:04.969Z,221.27
2023-01-12T13:37:45.538Z,215.63
2023-01-12T13:40:19.743Z,224.77
2023-01-12T13:43:08.885Z,215.27
2023-01-12T13:45:37.821Z,217.13
2023-01-12T13:48:08.018Z,231.50
2023-01-12T13:50:38.079Z,221.73
2023-01-12T13:53:05.983Z,213.20
2023-01-12T13:55:36.067Z,248.10
2023-01-12T13:58:07.796Z,231.53
2023-01-12T14:00:35.748Z,210.23
2023-01-12T14:03:05.989Z,212.80
2023-01-12T14:05:59.853Z,224.30
2023-01-12T14:08:54.781Z,213.47
2023-01-12T14:11:42.149Z,220.10
2023-01-12T14:14:48.023Z,226.77
2023-01-12T14:17:41.507Z,209.20
2023-01-12T14:20:15.697Z,211.30
2023-01-12T14:22:43.592Z,225.03
2023-01-12T14:25:16.447Z,237.88
2023-01-12T14:27:52.409Z,220.77
2023-01-12T14:30:22.415Z,207.60
2023-01-12T14:32:51.352Z,228.25
2023-01-12T14:35:21.921Z,200.77
2023-01-12T14:37:52.952Z,232.93
2023-01-12T14:40:23.783Z,220.13
2023-01-12T14:43:09.522Z,208.80
2023-01-12T14:46:13.128Z,222.03
2023-01-12T14:48:43.682Z,197.87
2023-01-12T14:51:19.207Z,222.57
2023-01-12T14:53:49.078Z,224.87
2023-01-12T14:56:19.544Z,220.13
2023-01-12T14:58:48.677Z,202.73
2023-01-12T15:01:33.730Z,218.90
2023-01-12T15:04:02.606Z,205.38
2023-01-12T15:06:30.498Z,227.90
2023-01-12T15:09:00.268Z,218.33
2023-01-12T15:11:36.296Z,220.23
2023-01-12T15:14:07.111Z,230.45
2023-01-12T15:16:54.337Z,224.07
2023-01-12T15:19:39.881Z,233.73
2023-01-12T15:22:28.688Z,215.07
2023-01-12T15:25:14.508Z,224.82
2023-01-12T15:27:42.267Z,220.30
2023-01-12T15:30:12.439Z,238.52
2023-01-12T15:32:48.207Z,242.45
2023-01-12T15:35:21.037Z,219.38
2023-01-12T15:37:48.781Z,216.70
2023-01-12T15:40:17.268Z,234.85
2023-01-12T15:42:44.945Z,230.50
2023-01-12T15:45:28.623Z,239.70
2023-01-12T15:47:57.778Z,232.00
2023-01-12T15:50:25.592Z,222.00
2023-01-12T15:52:53.663Z,248.60
2023-01-12T15:55:23.135Z,233.48
2023-01-12T15:57:52.157Z,239.43
2023-01-12T16:00:22.158Z,227.68
2023-01-12T16:02:51.253Z,223.80
2023-01-12T16:05:21.975Z,235.35
2023-01-12T16:07:50.252Z,236.38
2023-01-12T16:10:18.801Z,242.40
2023-01-12T16:12:47.761Z,238.32
2023-01-12T16:15:18.047Z,242.15
2023-01-12T16:17:45.883Z,246.27
2023-01-12T16:20:16.090Z,242.80
2023-01-12T16:22:46.556Z,256.75
2023-01-12T16:25:14.952Z,253.18
2023-01-12T16:27:42.797Z,246.38
2023-01-12T16:30:14.316Z,241.27
2023-01-12T16:32:47.139Z,247.60
2023-01-12T16:35:15.973Z,260.50
2023-01-12T16:37:45.065Z,237.32
2023-01-12T16:40:13.715Z,239.80
2023-01-12T16:42:41.413Z,238.90
2023-01-12T16:45:10.772Z,249.25
2023-01-12T16:47:38.643Z,253.35
2023-01-12T16:50:07.244Z,235.57
2023-01-12T16:52:35.226Z,242.13
2023-01-12T16:55:05.774Z,236.38
2023-01-12T16:57:34.594Z,238.65
2023-01-12T17:00:02.270Z,233.55
2023-01-12T17:02:31.424Z,240.60
2023-01-12T17:04:59.683Z,248.63
2023-01-12T17:07:27.749Z,251.50
2023-01-12T17:09:55.520Z,238.35
2023-01-12T17:12:24.647Z,237.02
2023-01-12T17:14:52.410Z,234.60
2023-01-12T17:17:20.278Z,232.77
2023-01-12T17:19:48.115Z,253.63
2023-01-12T17:22:16.166Z,233.23
2023-01-12T17:24:43.944Z,238.85
2023-01-12T17:27:12.012Z,252.50
2023-01-12T17:29:41.094Z,238.48
2023-01-12T17:32:09.137Z,237.90
2023-01-12T17:34:39.495Z,240.57
2023-01-12T17:37:08.663Z,241.60
2023-01-12T17:39:37.078Z,241.57
2023-01-12T17:42:22.666Z,236.70
2023-01-12T17:44:51.824Z,215.90
2023-01-12T17:47:19.522Z,234.30
2023-01-12T17:49:47.874Z,239.13
2023-01-12T17:52:15.676Z,233.57
2023-01-12T17:54:43.455Z,220.88
2023-01-12T17:57:11.295Z,230.77
2023-01-12T17:59:38.965Z,230.10
2023-01-12T18:02:08.420Z,235.23
2023-01-12T18:04:36.250Z,231.40
2023-01-12T18:07:04.091Z,241.53
2023-01-12T18:09:32.165Z,229.00
2023-01-12T18:12:00.292Z,237.83
2023-01-12T18:14:28.193Z,226.05
2023-01-12T18:16:57.321Z,238.05
2023-01-12T18:19:26.501Z,235.80
2023-01-12T18:21:54.215Z,217.68
2023-01-12T18:24:22.235Z,214.27
2023-01-12T18:26:50.841Z,229.77
2023-01-12T18:29:18.524Z,223.77
2023-01-12T18:31:47.228Z,219.43
2023-01-12T18:34:16.388Z,235.82
2023-01-12T18:36:46.322Z,217.82
2023-01-12T18:39:17.589Z,219.02
2023-01-12T18:42:03.122Z,233.27
2023-01-12T18:44:32.143Z,201.60
2023-01-12T18:47:17.701Z,236.53
2023-01-12T18:49:46.604Z,231.57
2023-01-12T18:52:34.785Z,221.95
2023-01-12T18:55:02.473Z,218.43
2023-01-12T18:57:32.315Z,224.77
2023-01-12T19:00:11.827Z,223.82
2023-01-12T19:02:39.901Z,211.80
2023-01-12T19:05:20.490Z,237.13
2023-01-12T19:08:05.059Z,227.87
2023-01-12T19:10:34.027Z,210.88
2023-01-12T19:13:19.523Z,226.13
2023-01-12T19:16:05.322Z,219.57
2023-01-12T19:18:35.551Z,215.52
2023-01-12T19:21:17.149Z,200.75
2023-01-12T19:24:05.794Z,222.73
2023-01-12T19:26:51.210Z,204.80
2023-01-12T19:29:18.900Z,221.70
2023-01-12T19:31:46.536Z,200.60
2023-01-12T19:34:14.280Z,218.73
2023-01-12T19:36:42.026Z,207.15
2023-01-12T19:39:11.492Z,219.63
2023-01-12T19:41:57.234Z,225.38
2023-01-12T19:44:24.897Z,202.93
2023-01-12T19:46:52.573Z,217.37
2023-01-12T19:49:20.251Z,209.47
2023-01-12T19:51:48.645Z,222.50
2023-01-12T19:54:17.682Z,227.90
2023-01-12T19:56:47.432Z,217.77
2023-01-12T19:59:15.163Z,223.38
2023-01-12T20:01:42.959Z,219.47
2023-01-12T20:04:10.645Z,208.57
2023-01-12T20:06:38.327Z,204.55
2023-01-12T20:09:06.011Z,214.05
2023-01-12T20:11:35.045Z,217.52
2023-01-12T20:14:02.733Z,218.70
2023-01-12T20:16:30.632Z,227.43
2023-01-12T20:18:59.446Z,240.60
2023-01-12T20:21:27.102Z,247.98
2023-01-12T20:23:54.896Z,217.55
2023-01-12T20:26:22.527Z,231.68
2023-01-12T20:28:51.547Z,230.45
2023-01-12T20:31:20.317Z,237.05
2023-01-12T20:33:48.707Z,226.00
2023-01-12T20:36:17.922Z,253.65
2023-01-12T20:38:46.912Z,243.30
2023-01-12T20:41:14.561Z,230.85
2023-01-12T20:43:42.288Z,242.18
2023-01-12T20:46:13.354Z,240.57
2023-01-12T20:48:41.792Z,230.00
2023-01-12T20:51:10.397Z,235.57
2023-01-12T20:53:38.141Z,232.10
2023-01-12T20:56:06.758Z,237.43
2023-01-12T20:58:34.902Z,232.30
2023-01-12T21:01:02.701Z,230.57
2023-01-12T21:03:31.904Z,238.43
2023-01-12T21:06:00.933Z,221.27
2023-01-12T21:08:28.575Z,213.57
2023-01-12T21:10:56.269Z,223.32
2023-01-12T21:13:23.953Z,216.05
2023-01-12T21:15:57.969Z,218.20
2023-01-12T21:18:25.656Z,234.48
2023-01-12T21:20:54.657Z,233.07
2023-01-12T21:23:22.383Z,206.77
2023-01-12T21:25:50.556Z,231.60
2023-01-12T21:28:18.660Z,221.10
2023-01-12T21:30:46.665Z,222.47
2023-01-12T21:33:14.697Z,238.20
2023-01-12T21:35:42.382Z,246.90
2023-01-12T21:38:11.425Z,219.80
2023-01-12T21:40:39.110Z,241.05
2023-01-12T21:43:08.845Z,234.10
2023-01-12T21:45:37.095Z,228.40
2023-01-12T21:48:05.012Z,217.90
2023-01-12T21:50:33.598Z,233.33
2023-01-12T21:53:02.612Z,227.20
2023-01-12T21:55:32.704Z,229.45
2023-01-12T21:58:02.110Z,229.27
2023-01-12T22:00:30.499Z,218.90
2023-01-12T22:02:58.431Z,219.40
2023-01-12T22:05:27.112Z,222.32
2023-01-12T22:07:55.535Z,241.97
2023-01-12T22:10:30.071Z,232.20
2023-01-12T22:13:00.818Z,211.70
2023-01-12T22:15:30.245Z,233.33
2023-01-12T22:17:57.914Z,232.10
2023-01-12T22:20:27.692Z,219.05
2023-01-12T22:22:55.822Z,234.98
2023-01-12T22:25:24.058Z,230.68
2023-01-12T22:27:51.761Z,240.40
2023-01-12T22:30:24.016Z,211.85
2023-01-12T22:32:55.011Z,236.48
2023-01-12T22:35:22.808Z,239.13
2023-01-12T22:37:50.503Z,240.63
2023-01-12T22:40:18.656Z,223.75
2023-01-12T22:43:04.051Z,233.20
2023-01-12T22:45:35.477Z,223.20
2023-01-12T22:48:03.185Z,226.15
2023-01-12T22:50:30.913Z,237.70
2023-01-12T22:52:58.545Z,218.38
2023-01-12T22:55:26.536Z,231.40
2023-01-12T22:57:54.249Z,247.20
2023-01-12T23:00:22.318Z,243.00
2023-01-12T23:03:00.757Z,249.27
2023-01-12T23:05:31.796Z,231.40
2023-01-12T23:07:59.987Z,238.68
2023-01-12T23:10:27.799Z,230.55
2023-01-12T23:13:15.528Z,236.68
2023-01-12T23:15:47.724Z,222.63
2023-01-12T23:18:19.226Z,224.73
2023-01-12T23:20:47.567Z,242.80
2023-01-12T23:23:17.576Z,230.73
2023-01-12T23:25:46.529Z,230.95
2023-01-12T23:28:15.764Z,250.52
2023-01-12T23:30:43.832Z,246.65
2023-01-12T23:33:12.653Z,238.57
2023-01-12T23:35:42.800Z,256.10
2023-01-12T23:38:15.887Z,239.50
2023-01-12T23:40:43.497Z,236.57
2023-01-12T23:43:11.107Z,245.13
2023-01-12T23:45:38.754Z,234.57
2023-01-12T23:48:07.729Z,243.82
2023-01-12T23:50:35.439Z,239.18
2023-01-12T23:53:04.894Z,268.80
2023-01-12T23:55:32.506Z,251.52
2023-01-12T23:58:00.115Z,256.30
